ADDS METAR Data INFO
IDs: Format: Raw Decoded Include TAF

Data at: 0937 UTC 25 Jun 2018

KCDI 250915Z AUTO 00000KT 10SM CLR 15/15 A3010 RMK AO2 T01520154
KCDI 250855Z AUTO 00000KT 7SM CLR 15/15 A3010 RMK AO2 T01510151
KCDI 250835Z AUTO 00000KT 5SM BR CLR 15/15 A3010 RMK AO2 T01510152
KCDI 250815Z AUTO 00000KT 10SM CLR 15/16 A3010 RMK AO2 T01540155
KCDI 250755Z AUTO 00000KT 10SM CLR 15/16 A3009 RMK AO2 T01530155
KCDI 250735Z AUTO 00000KT 10SM CLR 16/16 A3008 RMK AO2 T01580159
KCDI 250715Z AUTO 00000KT 10SM CLR 17/15 A3007 RMK AO2 T01650150
KCDI 250655Z AUTO 00000KT 10SM CLR 17/16 A3006 RMK AO2 T01720157
KCDI 250635Z AUTO 00000KT 10SM CLR 17/16 A3006 RMK AO2 T01670162
KCDI 250615Z AUTO 00000KT 10SM CLR 17/15 A3005 RMK AO2 T01700154
KCDI 250555Z AUTO 00000KT 10SM CLR 19/16 A3004 RMK AO2 T01850162 10251 20185
KCDI 250535Z AUTO 10SM CLR 19/16 A3005 RMK AO2 T01880162
KCDI 250515Z AUTO 00000KT 10SM CLR 19/16 A3006 RMK AO2 T01910163
KCDI 250455Z AUTO 33003KT 10SM CLR 19/16 A3006 RMK AO2 T01910164 402790172
KCDI 250435Z AUTO 34003KT 10SM CLR 20/16 A3005 RMK AO2 T01990164
KCDI 250415Z AUTO 35003KT 10SM CLR 20/17 A3004 RMK AO2 T02010165
KCDI 250355Z AUTO 10SM CLR 20/17 A3003 RMK AO2 T02030165
KCDI 250335Z AUTO 00000KT 10SM CLR 21/17 A3003 RMK AO2 T02060166
KCDI 250315Z AUTO 00000KT 10SM CLR 20/17 A3003 RMK AO2 T01960168
KCDI 250255Z AUTO 10SM CLR 21/17 A3002 RMK AO2 T02090168
KCDI 250235Z AUTO 00000KT 10SM CLR 20/17 A3002 RMK AO2 T02040168
KCDI 250215Z AUTO 00000KT 10SM CLR 20/17 A3001 RMK AO2 T01990170
KCDI 250155Z AUTO 00000KT 10SM CLR 23/17 A3000 RMK AO2 T02250166
KCDI 250135Z AUTO 36003KT 10SM CLR 20/17 A2999 RMK AO2 T02030171
KCDI 250115Z AUTO 00000KT 10SM SCT055 22/17 A2999 RMK AO2 T02150171
KCDI 250055Z AUTO 00000KT 10SM SCT055 22/17 A2998 RMK AO2 T02240170
KCDI 250035Z AUTO 00000KT 10SM CLR 24/16 A2996 RMK AO2 T02360163
KCDI 250015Z AUTO 00000KT 10SM CLR 24/17 A2996 RMK AO2 T02440165
KCDI 242355Z AUTO 00000KT 10SM CLR 26/16 A2996 RMK AO2 T02550160 10279 20255
KCDI 242335Z AUTO 29003KT 10SM CLR 26/15 A2995 RMK AO2 T02630153
KCDI 242315Z AUTO 00000KT 10SM SCT070 27/15 A2995 RMK AO2 T02680153
KCDI 242255Z AUTO 00000KT 10SM SCT050 SCT065 27/15 A2995 RMK AO2 T02710152
KCDI 242235Z AUTO 28003KT 10SM SCT050 27/16 A2994 RMK AO2 T02730155
KCDI 242215Z AUTO 00000KT 10SM SCT060 SCT075 27/16 A2993 RMK AO2 T02730158
KCDI 242155Z AUTO 28006KT 10SM SCT060 BKN075 28/15 A2993 RMK AO2 T02750153
KCDI 242135Z AUTO 26005KT 10SM SCT060 SCT070 28/15 A2993 RMK AO2 T02770153
KCDI 242115Z AUTO 25004KT 10SM SCT060 28/15 A2994 RMK AO2 T02780152
KCDI 242055Z AUTO 28005KT 10SM CLR 28/15 A2994 RMK AO2 T02760148
KCDI 242035Z AUTO 29006KT 240V330 10SM CLR 28/15 A2994 RMK AO2 T02770149
KCDI 242015Z AUTO 28006KT 10SM SCT002 SCT050 28/16 A2993 RMK AO2 T02770155
KCDI 241955Z AUTO 29005KT 10SM SCT050 SCT065 27/15 A2993 RMK AO2 T02730145
KCDI 241935Z AUTO 30006KT 10SM SCT050 SCT065 28/15 A2993 RMK AO2 T02750154
KCDI 241915Z AUTO 28004KT 10SM SCT050 27/16 A2993 RMK AO2 LTG DSNT NE T02730158
KCDI 241855Z AUTO 26004KT 10SM SCT050 26/16 A2992 RMK AO2 LTG DSNT NE T02640161
KCDI 241835Z AUTO 28006KT 10SM SCT049 SCT065 27/16 A2992 RMK AO2 T02690156
KCDI 241815Z AUTO 27004KT 10SM SCT042 BKN049 BKN065 26/16 A2992 RMK AO2 T02600164
KCDI 241755Z AUTO 27006KT 10SM BKN040 BKN048 25/17 A2992 RMK AO2 T02540170 10267 20211
KCDI 241735Z AUTO 24006KT 10SM SCT038 BKN046 BKN060 26/17 A2991 RMK AO2 T02570174
KCDI 241715Z AUTO 27006KT 10SM BKN038 BKN049 BKN060 26/18 A2992 RMK AO2 T02610175
KCDI 241655Z AUTO 26003KT 10SM BKN036 BKN042 BKN050 26/18 A2992 RMK AO2 T02620178
KCDI 241635Z AUTO 27007KT 10SM BKN036 BKN042 BKN060 26/18 A2992 RMK AO2 T02570179
KCDI 241615Z AUTO 23007KT 10SM SCT034 BKN040 BKN050 26/18 A2992 RMK AO2 T02580178
KCDI 241555Z AUTO 26003KT 10SM BKN034 BKN040 25/17 A2992 RMK AO2 T02450173
KCDI 241535Z AUTO 26005G14KT 10SM SCT032 25/17 A2992 RMK AO2 T02520174
KCDI 241515Z AUTO 23006KT 10SM SCT029 SCT046 SCT065 25/18 A2991 RMK AO2 T02490181
KCDI 241455Z AUTO 27006KT 10SM SCT029 SCT046 BKN065 24/18 A2991 RMK AO2 T02370179
KCDI 241435Z AUTO 28003KT 10SM SCT025 SCT031 BKN041 23/18 A2991 RMK AO2 T02280179
KCDI 241415Z AUTO 22008KT 10SM BKN023 BKN036 BKN047 24/18 A2990 RMK AO2 T02410180
KCDI 241355Z AUTO 00000KT 10SM BKN020 BKN025 BKN036 23/19 A2990 RMK AO2 T02260186
KCDI 241335Z AUTO 24003KT 10SM BKN020 OVC029 23/19 A2990 RMK AO2 T02300188
KCDI 241315Z AUTO 21006KT 10SM BKN018 BKN025 23/19 A2990 RMK AO2 T02290186
KCDI 241255Z AUTO 24003KT 10SM BKN029 23/18 A2990 RMK AO2 T02250184
KCDI 241235Z AUTO 26005KT 10SM BKN031 22/19 A2990 RMK AO2 T02230185
KCDI 241215Z AUTO 24003KT 10SM BKN031 22/19 A2990 RMK AO2 T02150188
KCDI 241155Z AUTO 19003KT 10SM SCT031 21/19 A2989 RMK AO2 T02090191 10209 20178
KCDI 241135Z AUTO 19004KT 10SM CLR 20/20 A2989 RMK AO2 T01990196
KCDI 241115Z AUTO 00000KT 7SM CLR 19/19 A2988 RMK AO2 T01870188
KCDI 241055Z AUTO 00000KT 4SM BR SCT080 18/18 A2988 RMK AO2 T01800181
KCDI 241035Z AUTO 00000KT 3SM BR BKN080 18/18 A2988 RMK AO2 T01790180
KCDI 241015Z AUTO 00000KT 3SM BR SCT055 OVC080 18/18 A2988 RMK AO2 T01800180
KCDI 240955Z AUTO 00000KT 5SM BR SCT055 BKN090 18/18 A2987 RMK AO2 T01820183
KCDI 240935Z AUTO 00000KT 7SM OVC090 19/19 A2986 RMK AO2 T01850185
KCDI 240915Z AUTO 00000KT 7SM OVC090 19/19 A2986 RMK AO2 T01860187
KCDI 240855Z AUTO 00000KT 10SM BKN090 19/19 A2986 RMK AO2 T01860187
KCDI 240835Z AUTO 00000KT 7SM OVC090 19/19 A2986 RMK AO2 T01860187
KCDI 240815Z AUTO 00000KT 7SM OVC090 19/19 A2986 RMK AO2 T01870188
KCDI 240755Z AUTO 00000KT 7SM SCT070 OVC090 19/19 A2986 RMK AO2 T01870188
KCDI 240735Z AUTO 00000KT 7SM SCT070 OVC090 19/19 A2986 RMK AO2 T01880190
KCDI 240715Z AUTO 00000KT 10SM SCT075 OVC080 19/19 A2985 RMK AO2 T01880190
KCDI 240655Z AUTO 00000KT 10SM SCT032 SCT039 OVC075 19/19 A2986 RMK AO2 T01880190
KCDI 240635Z AUTO 20003KT 7SM SCT032 SCT037 OVC075 19/19 A2986 RMK AO2 T01850185
KCDI 240615Z AUTO 00000KT 7SM BKN035 BKN043 OVC075 18/19 A2986 RMK AO2 T01830185
KCDI 240555Z AUTO 00000KT 7SM BKN035 OVC075 18/18 A2986 RMK AO2 T01810182 10236 20170
KCDI 240535Z AUTO 00000KT 7SM OVC075 18/18 A2985 RMK AO2 T01790180
KCDI 240515Z AUTO 00000KT 5SM BR OVC075 18/18 A2984 RMK AO2 T01760177
KCDI 240455Z AUTO 00000KT 4SM BR SCT075 17/17 A2984 RMK AO2 T01720173 402590170
KCDI 240435Z AUTO 00000KT 4SM BR CLR 17/17 A2984 RMK AO2 T01730174
KCDI 240415Z AUTO 00000KT 3SM BR CLR 17/17 A2984 RMK AO2 T01720173
KCDI 240355Z AUTO 00000KT 5SM BR CLR 18/18 A2984 RMK AO2 T01780179
KCDI 240335Z AUTO 00000KT 4SM BR CLR 18/18 A2984 RMK AO2 T01760177
KCDI 240315Z AUTO 00000KT 5SM BR CLR 18/18 A2983 RMK AO2 T01810182
KCDI 240255Z AUTO 00000KT 5SM BR CLR 18/18 A2983 RMK AO2 T01810182
KCDI 240235Z AUTO 00000KT 7SM CLR 19/19 A2983 RMK AO2 T01850186
KCDI 240215Z AUTO 00000KT 7SM CLR 19/19 A2983 RMK AO2 T01880189
KCDI 240155Z AUTO 00000KT 10SM CLR 19/19 A2982 RMK AO2 T01920192
KCDI 240135Z AUTO 00000KT 10SM SCT047 20/19 A2982 RMK AO2 T01950185
KCDI 240115Z AUTO 00000KT 10SM SCT047 20/19 A2981 RMK AO2 T02000186
KCDI 240055Z AUTO 00000KT 10SM CLR 21/19 A2981 RMK AO2 T02100186
KCDI 240035Z AUTO 00000KT 10SM SCT095 23/18 A2981 RMK AO2 T02250182
KCDI 240015Z AUTO 22003KT 10SM OVC095 23/18 A2980 RMK AO2 T02330181
KCDI 232355Z AUTO 23003KT 10SM OVC085 24/18 A2980 RMK AO2 T02360178 10259 20220
KCDI 232335Z AUTO 22005KT 10SM SCT040 BKN085 24/18 A2979 RMK AO2 T02370179
KCDI 232315Z AUTO 22004KT 10SM SCT002 SCT038 24/18 A2978 RMK AO2 T02420177
KCDI 232255Z AUTO 22005KT 10SM SCT038 25/18 A2978 RMK AO2 T02510183
KCDI 232235Z AUTO 23005KT 10SM SCT100 25/20 A2978 RMK AO2 T02510195
KCDI 232215Z AUTO 22006KT 10SM SCT060 SCT100 25/20 A2978 RMK AO2 T02480198
KCDI 232155Z AUTO 25003KT 10SM SCT060 OVC090 25/19 A2978 RMK AO2 T02510194